Time;durP1;ratioP1;P1;durP2;ratioP2;P2;SDS_P1;SDS_P2;PMS_P1;PMS_P2;Temp;Humidity;BMP_temperature;BMP_pressure;BME280_temperature;BME280_humidity;BME280_pressure;Samples;Min_cycle;Max_cycle;Signal;HPM_P1;HPM_P2
2023/04/05 00:00:59;;;;;;;6.63;6.03;;;;;;;7.71;60.57;94142.06;5089714;28;20216;-47
2023/04/05 00:03:27;;;;;;;6.77;6.17;;;;;;;7.69;60.86;94136.31;5071769;28;20226;-49
2023/04/05 00:05:54;;;;;;;6.90;6.10;;;;;;;7.68;60.57;94135.50;5069366;28;20190;-48
2023/04/05 00:08:25;;;;;;;7.40;6.70;;;;;;;7.68;60.54;94138.03;5078601;28;20258;-48
2023/04/05 00:10:52;;;;;;;7.63;6.83;;;;;;;7.46;60.52;94107.75;5089222;28;20198;-49
2023/04/05 00:13:19;;;;;;;7.20;6.50;;;;;;;7.68;60.65;94138.03;5089300;28;20188;-52
2023/04/05 00:15:47;;;;;;;7.50;6.70;;;;;;;7.58;60.57;94119.44;5089519;28;20289;-47
2023/04/05 00:18:20;;;;;;;6.90;6.27;;;;;;;7.67;60.53;94133.88;5088814;28;20573;-48
2023/04/05 00:20:48;;;;;;;7.43;6.60;;;;;;;7.66;60.61;94131.50;5081043;28;20204;-46
2023/04/05 00:23:16;;;;;;;7.10;6.40;;;;;;;7.65;60.46;94127.34;5089173;28;20217;-46
2023/04/05 00:25:43;;;;;;;7.47;6.63;;;;;;;7.59;60.64;94115.13;5089299;28;20232;-47
2023/04/05 00:28:10;;;;;;;6.70;6.10;;;;;;;7.60;60.58;94130.28;5088995;28;20220;-51
2023/04/05 00:30:37;;;;;;;7.43;6.67;;;;;;;7.65;60.65;94132.44;5089337;28;20246;-54
2023/04/05 00:33:04;;;;;;;7.03;6.33;;;;;;;7.63;60.68;94124.91;5089678;28;20200;-47
2023/04/05 00:35:31;;;;;;;6.43;5.83;;;;;;;7.63;60.53;94130.00;5089581;28;20217;-53
2023/04/05 00:37:59;;;;;;;7.27;6.47;;;;;;;7.31;60.71;94088.75;5089266;28;20189;-53
2023/04/05 00:40:26;;;;;;;6.70;6.10;;;;;;;7.59;60.61;94128.66;5088969;28;20247;-49
2023/04/05 00:42:53;;;;;;;6.20;5.60;;;;;;;7.60;60.65;94132.84;5089343;28;20291;-49
2023/04/05 00:45:20;;;;;;;6.97;6.27;;;;;;;7.59;60.58;94136.28;5090022;28;20186;-52
2023/04/05 00:47:47;;;;;;;6.90;6.17;;;;;;;7.57;60.89;94135.63;5091270;28;20194;-51
2023/04/05 00:50:15;;;;;;;6.27;5.70;;;;;;;7.57;60.59;94135.63;5093210;28;20235;-51
2023/04/05 00:52:43;;;;;;;5.37;4.87;;;;;;;7.57;60.29;94135.63;5084000;28;20223;-53
2023/04/05 00:55:12;;;;;;;5.90;5.30;;;;;;;7.56;60.44;94134.03;5092752;28;20858;-47
2023/04/05 00:57:39;;;;;;;5.30;4.77;;;;;;;7.52;60.43;94136.03;5092828;28;20229;-48
2023/04/05 01:00:08;;;;;;;5.70;5.20;;;;;;;7.55;60.40;94147.66;5092489;28;20669;-49
2023/04/05 01:02:44;;;;;;;4.97;4.57;;;;;;;7.56;60.33;94143.41;5092403;28;20251;-52
2023/04/05 01:05:21;;;;;;;5.63;5.03;;;;;;;7.56;60.39;94140.88;5092510;28;20185;-61
2023/04/05 01:07:58;;;;;;;4.77;4.37;;;;;;;7.56;60.36;94143.41;5093058;28;20189;-50
2023/04/05 01:10:35;;;;;;;5.30;4.90;;;;;;;7.52;60.37;94137.78;5093021;28;20209;-49
2023/04/05 01:13:02;;;;;;;5.10;4.70;;;;;;;7.55;60.37;94145.13;5092762;28;20193;-51
2023/04/05 01:15:28;;;;;;;4.87;4.47;;;;;;;7.51;60.52;94141.22;5093949;28;20290;-50
2023/04/05 01:17:56;;;;;;;5.80;5.00;;;;;;;7.53;60.42;94139.38;5092811;28;20197;-47
2023/04/05 01:20:27;;;;;;;4.63;4.23;;;;;;;7.54;60.34;94148.63;5092741;28;20256;-48
2023/04/05 01:23:23;;;;;;;4.90;4.50;;;;;;;7.56;60.42;94151.03;5092785;28;20192;-47
2023/04/05 01:26:30;;;;;;;4.60;4.20;;;;;;;7.54;60.33;94149.41;5092469;28;20290;-48
2023/04/05 01:29:17;;;;;;;4.93;4.43;;;;;;;7.55;60.37;94152.75;5092191;28;20552;-47
2023/04/05 01:31:51;;;;;;;4.40;4.00;;;;;;;7.52;60.36;94151.31;5075393;28;20277;-47
2023/04/05 01:34:29;;;;;;;4.60;4.17;;;;;;;7.51;60.50;94146.31;5092006;28;20221;-47
2023/04/05 01:37:01;;;;;;;4.30;3.97;;;;;;;7.55;60.26;94160.38;5091824;28;20232;-47
2023/04/05 01:39:29;;;;;;;4.80;4.40;;;;;;;7.55;60.32;94155.31;5092824;28;20190;-47
2023/04/05 01:42:00;;;;;;;4.40;4.03;;;;;;;7.56;60.33;94156.13;5091628;28;20190;-49
2023/04/05 01:44:26;;;;;;;4.80;4.40;;;;;;;7.56;60.34;94156.13;5083151;28;20646;-47
2023/04/05 01:46:54;;;;;;;4.13;3.80;;;;;;;7.56;60.36;94156.13;5091838;28;20627;-47
2023/04/05 01:49:22;;;;;;;4.10;3.80;;;;;;;7.56;60.22;94153.59;5091931;28;20303;-47
2023/04/05 01:51:48;;;;;;;3.80;3.50;;;;;;;7.08;60.10;94078.84;5091814;28;20182;-48
2023/04/05 01:54:15;;;;;;;4.67;4.30;;;;;;;7.56;60.15;94145.97;5087693;28;20187;-46
2023/04/05 01:56:42;;;;;;;4.77;4.37;;;;;;;7.55;60.15;94152.75;5075565;28;20232;-49
2023/04/05 01:59:09;;;;;;;4.27;3.97;;;;;;;7.55;60.13;94147.66;5090620;28;20193;-46
2023/04/05 02:01:36;;;;;;;4.73;4.30;;;;;;;7.53;60.04;94147.00;5092046;28;20571;-46
2023/04/05 02:04:04;;;;;;;3.90;3.60;;;;;;;7.54;60.18;94144.31;5089676;28;20185;-47
2023/04/05 02:06:31;;;;;;;4.37;4.07;;;;;;;7.48;60.10;94138.97;5091861;28;20181;-48
2023/04/05 02:08:57;;;;;;;4.40;4.00;;;;;;;7.55;60.14;94152.75;5091261;28;20270;-47
2023/04/05 02:11:24;;;;;;;4.03;3.73;;;;;;;7.56;60.04;94158.69;5091365;28;20579;-47
2023/04/05 02:13:51;;;;;;;3.73;3.43;;;;;;;7.56;60.06;94156.13;5091077;28;20205;-47
2023/04/05 02:16:18;;;;;;;4.00;3.70;;;;;;;7.56;59.96;94161.22;5091503;28;20247;-48
2023/04/05 02:18:49;;;;;;;4.37;3.97;;;;;;;7.56;60.11;94156.94;5091093;28;20189;-47
2023/04/05 02:21:17;;;;;;;3.87;3.57;;;;;;;7.41;59.94;94132.81;5091098;28;20189;-47
2023/04/05 02:23:44;;;;;;;4.13;3.83;;;;;;;7.58;59.92;94156.78;5090696;28;20197;-47
2023/04/05 02:26:11;;;;;;;3.80;3.50;;;;;;;7.53;59.96;94150.34;5091013;28;20275;-47
2023/04/05 02:28:38;;;;;;;4.03;3.63;;;;;;;7.52;59.91;94147.97;5091178;28;20198;-47
2023/04/05 02:31:10;;;;;;;4.20;3.90;;;;;;;7.57;59.88;94161.06;5091328;28;20197;-46
2023/04/05 02:33:37;;;;;;;3.93;3.63;;;;;;;7.57;59.91;94158.53;5091079;28;20198;-48
2023/04/05 02:36:05;;;;;;;3.80;3.50;;;;;;;7.57;59.87;94158.53;5090399;28;20342;-48
2023/04/05 02:38:33;;;;;;;4.10;3.70;;;;;;;7.55;60.08;94150.22;5091434;28;20246;-50
2023/04/05 02:41:00;;;;;;;3.90;3.50;;;;;;;7.53;59.98;94154.66;5091150;28;20189;-48
2023/04/05 02:43:27;;;;;;;3.40;3.20;;;;;;;7.54;59.89;94146.06;5090207;28;20227;-48
2023/04/05 02:45:54;;;;;;;4.27;3.97;;;;;;;7.55;60.02;94152.75;5090529;28;20189;-46
2023/04/05 02:48:21;;;;;;;4.20;3.80;;;;;;;7.47;59.87;94139.88;5091608;28;20205;-48
2023/04/05 02:50:48;;;;;;;3.93;3.63;;;;;;;7.55;60.02;94150.22;5090675;28;20185;-48
2023/04/05 02:53:15;;;;;;;4.07;3.77;;;;;;;7.56;59.88;94148.50;5090893;28;20193;-50
2023/04/05 02:55:44;;;;;;;3.90;3.60;;;;;;;7.56;59.95;94151.84;5090531;28;20712;-47
2023/04/05 02:58:13;;;;;;;4.17;3.77;;;;;;;7.57;60.03;94152.66;5089896;28;20186;-49
2023/04/05 03:00:39;;;;;;;4.50;4.07;;;;;;;7.56;59.96;94149.31;5090165;28;20224;-48
2023/04/05 03:03:06;;;;;;;3.83;3.53;;;;;;;7.51;59.99;94134.44;5090299;28;20807;-46
2023/04/05 03:05:33;;;;;;;3.73;3.43;;;;;;;7.57;59.88;94150.09;5090384;28;20201;-47
2023/04/05 03:08:01;;;;;;;4.33;3.93;;;;;;;7.58;59.93;94144.06;5089901;28;20181;-48
2023/04/05 03:10:31;;;;;;;3.60;3.40;;;;;;;7.59;59.95;94149.00;5090050;28;20225;-48
2023/04/05 03:12:59;;;;;;;4.57;4.13;;;;;;;7.60;59.85;94142.19;5089661;28;20286;-47
2023/04/05 03:15:26;;;;;;;4.10;3.80;;;;;;;7.56;60.06;94139.13;5089861;28;20568;-47
2023/04/05 03:17:53;;;;;;;3.73;3.47;;;;;;;7.60;59.90;94140.47;5090449;28;20186;-48
2023/04/05 03:20:20;;;;;;;3.67;3.37;;;;;;;7.59;60.05;94140.56;5090142;28;20194;-48
2023/04/05 03:22:47;;;;;;;4.00;3.60;;;;;;;7.61;59.99;94148.91;5090107;28;20642;-47
2023/04/05 03:25:15;;;;;;;3.97;3.57;;;;;;;7.61;59.83;94148.91;5089817;28;20194;-48
2023/04/05 03:27:41;;;;;;;3.60;3.40;;;;;;;7.55;59.97;94140.03;5090008;28;20197;-48
2023/04/05 03:30:11;;;;;;;4.00;3.70;;;;;;;7.62;59.86;94147.97;5089653;28;20189;-48
2023/04/05 03:32:37;;;;;;;3.90;3.60;;;;;;;7.54;60.01;94139.22;5069350;28;20600;-48
2023/04/05 03:35:05;;;;;;;3.80;3.50;;;;;;;7.61;59.81;94142.06;5069975;28;20271;-47
2023/04/05 03:37:32;;;;;;;4.30;4.00;;;;;;;7.61;60.02;94149.69;5070746;28;20213;-49
2023/04/05 03:39:59;;;;;;;3.90;3.60;;;;;;;7.61;60.02;94151.44;5082808;28;20197;-48
2023/04/05 03:42:26;;;;;;;4.17;3.77;;;;;;;7.60;60.06;94150.63;5089506;28;20251;-48
2023/04/05 03:44:53;;;;;;;3.60;3.30;;;;;;;7.60;60.15;94155.72;5090077;28;20196;-47
2023/04/05 03:47:21;;;;;;;4.40;3.70;;;;;;;7.61;60.13;94154.00;5089731;28;20280;-46
2023/04/05 03:49:48;;;;;;;3.53;3.23;;;;;;;7.60;60.16;94152.34;5089713;28;20181;-47
2023/04/05 03:52:15;;;;;;;4.10;3.70;;;;;;;7.59;60.21;94158.38;5089201;28;20281;-47
2023/04/05 03:54:41;;;;;;;4.17;3.87;;;;;;;7.61;60.25;94161.63;5089915;28;20220;-47
2023/04/05 03:57:08;;;;;;;4.93;3.90;;;;;;;7.59;60.44;94159.19;5089148;28;20233;-50
2023/04/05 03:59:35;;;;;;;3.80;3.50;;;;;;;7.61;60.54;94164.16;5089243;28;20637;-47
2023/04/05 04:02:02;;;;;;;3.93;3.63;;;;;;;7.60;60.62;94168.44;5088816;28;20664;-49
2023/04/05 04:04:30;;;;;;;3.80;3.50;;;;;;;7.60;60.62;94165.91;5088879;28;20190;-48
2023/04/05 04:06:57;;;;;;;3.83;3.53;;;;;;;7.60;60.93;94167.63;5088689;28;20629;-48
2023/04/05 04:09:24;;;;;;;3.80;3.50;;;;;;;7.60;60.94;94172.72;5087467;28;20182;-47
2023/04/05 04:11:50;;;;;;;4.00;3.70;;;;;;;7.60;60.98;94175.25;5089143;28;20202;-47
2023/04/05 04:14:17;;;;;;;3.97;3.60;;;;;;;7.58;60.78;94170.31;5088679;28;20181;-49
2023/04/05 04:16:44;;;;;;;3.77;3.47;;;;;;;7.61;60.93;94169.25;5087850;28;20683;-46
2023/04/05 04:19:11;;;;;;;3.97;3.67;;;;;;;7.61;61.02;94171.81;5088627;28;20193;-48
2023/04/05 04:21:39;;;;;;;4.30;3.93;;;;;;;7.62;61.17;94170.84;5088294;28;20197;-48
2023/04/05 04:24:06;;;;;;;4.10;3.70;;;;;;;7.63;60.99;94175.00;5089373;28;20193;-47
2023/04/05 04:26:36;;;;;;;3.80;3.50;;;;;;;7.63;61.02;94175.81;5089092;28;20182;-47
2023/04/05 04:29:05;;;;;;;3.90;3.60;;;;;;;7.66;61.04;94174.75;5088052;28;20193;-48
2023/04/05 04:31:33;;;;;;;4.27;3.97;;;;;;;7.67;61.15;94179.69;5088772;28;20204;-52
2023/04/05 04:34:01;;;;;;;3.90;3.60;;;;;;;7.67;61.17;94176.34;5089170;28;20657;-46
2023/04/05 04:36:34;;;;;;;4.13;3.73;;;;;;;7.70;61.20;94181.19;5088898;28;20237;-52
2023/04/05 04:39:05;;;;;;;5.53;4.30;;;;;;;7.70;61.18;94184.53;5088399;28;20288;-49
2023/04/05 04:41:32;;;;;;;3.90;3.50;;;;;;;7.72;61.09;94185.19;5088752;28;20764;-52
2023/04/05 04:44:01;;;;;;;4.00;3.67;;;;;;;7.75;61.12;94189.22;5089050;28;20198;-47
2023/04/05 04:46:33;;;;;;;5.70;4.30;;;;;;;7.78;61.31;94183.88;5088980;28;20292;-50
2023/04/05 04:49:04;;;;;;;4.33;3.77;;;;;;;7.78;61.09;94178.78;5089370;28;20185;-48
2023/04/05 04:51:31;;;;;;;4.00;3.70;;;;;;;7.84;61.06;94195.25;5089096;28;20189;-50
2023/04/05 04:53:58;;;;;;;4.60;4.20;;;;;;;7.86;61.03;94194.19;5086776;28;20673;-49
2023/04/05 04:56:26;;;;;;;4.10;3.70;;;;;;;7.87;60.82;94184.81;5088585;28;20233;-47
2023/04/05 04:58:55;;;;;;;4.27;3.87;;;;;;;7.93;60.74;94190.16;5088645;28;20212;-49
2023/04/05 05:01:23;;;;;;;3.53;3.23;;;;;;;7.83;60.92;94165.66;5088357;28;20511;-49
2023/04/05 05:03:50;;;;;;;3.60;3.30;;;;;;;8.00;60.59;94193.78;5089919;28;20190;-52
2023/04/05 05:06:18;;;;;;;5.47;4.00;;;;;;;8.01;60.66;94190.28;5089804;28;20693;-48
2023/04/05 05:08:45;;;;;;;3.67;3.33;;;;;;;8.08;60.42;94188.03;5090234;28;20197;-50
2023/04/05 05:11:12;;;;;;;3.83;3.43;;;;;;;8.02;60.47;94173.25;5090651;28;20197;-51
2023/04/05 05:13:40;;;;;;;3.90;3.50;;;;;;;8.15;60.07;94194.16;5090579;28;20212;-47
2023/04/05 05:16:09;;;;;;;3.60;3.30;;;;;;;8.20;60.13;94201.41;5089767;28;20197;-50
2023/04/05 05:18:35;;;;;;;3.13;2.93;;;;;;;8.22;60.21;94202.88;5090089;28;20196;-50
2023/04/05 05:21:02;;;;;;;3.20;2.90;;;;;;;8.24;59.94;94200.97;5088273;28;20657;-46
2023/04/05 05:23:29;;;;;;;3.53;3.23;;;;;;;8.25;60.05;94200.06;5072840;28;20200;-48
2023/04/05 05:25:58;;;;;;;3.27;2.97;;;;;;;8.33;59.83;94201.13;5079632;28;20182;-47
2023/04/05 05:28:25;;;;;;;4.00;2.63;;;;;;;8.37;59.78;94199.94;5085912;28;20289;-48
2023/04/05 05:30:53;;;;;;;4.03;2.90;;;;;;;8.42;59.75;94203.69;5088299;28;20233;-46
2023/04/05 05:33:20;;;;;;;2.97;2.77;;;;;;;8.47;59.56;94206.63;5088243;28;20186;-47
2023/04/05 05:35:48;;;;;;;2.80;2.60;;;;;;;8.51;59.56;94197.78;5091928;28;20182;-47
2023/04/05 05:38:15;;;;;;;3.13;2.93;;;;;;;8.62;59.50;94198.56;5091385;28;20225;-47
2023/04/05 05:40:42;;;;;;;3.23;2.90;;;;;;;8.73;59.24;94198.41;5091697;28;20193;-46
2023/04/05 05:43:10;;;;;;;3.07;2.87;;;;;;;8.83;59.09;94193.28;5091232;28;20192;-46
2023/04/05 05:45:37;;;;;;;3.30;3.00;;;;;;;8.94;59.20;94193.91;5091336;28;20626;-46
2023/04/05 05:48:05;;;;;;;4.20;3.47;;;;;;;9.04;58.84;94193.88;5090605;28;20192;-47
2023/04/05 05:50:32;;;;;;;3.23;2.93;;;;;;;9.14;58.49;94191.25;5091041;28;20661;-46
2023/04/05 05:52:59;;;;;;;3.43;3.10;;;;;;;9.22;58.52;94189.59;5091157;28;20638;-48
2023/04/05 05:55:26;;;;;;;4.03;2.90;;;;;;;9.33;58.16;94195.47;5091225;28;20205;-49
2023/04/05 05:57:54;;;;;;;2.80;2.60;;;;;;;9.41;58.08;94185.34;5090363;28;20283;-46
2023/04/05 06:00:21;;;;;;;2.77;2.57;;;;;;;9.52;57.83;94185.16;5090932;28;20207;-54
2023/04/05 06:02:51;;;;;;;3.20;2.90;;;;;;;9.62;57.57;94188.44;5090738;28;20177;-47
2023/04/05 06:05:19;;;;;;;2.73;2.53;;;;;;;9.75;57.43;94186.34;5090514;28;20194;-55
2023/04/05 06:07:46;;;;;;;2.73;2.53;;;;;;;9.86;57.26;94195.53;5090672;28;20659;-46
2023/04/05 06:10:13;;;;;;;2.73;2.50;;;;;;;9.97;56.93;94197.06;5090491;28;20262;-49
2023/04/05 06:12:40;;;;;;;3.17;2.60;;;;;;;10.01;56.88;94194.06;5090444;28;20257;-50
2023/04/05 06:15:08;;;;;;;2.70;2.50;;;;;;;10.12;56.87;94199.94;5095347;28;20201;-48
2023/04/05 06:17:40;;;;;;;2.73;2.53;;;;;;;10.14;56.66;94198.81;5094417;28;20222;-51
2023/04/05 06:20:10;;;;;;;3.40;2.70;;;;;;;10.23;56.60;94207.34;5095003;28;20632;-47
2023/04/05 06:22:39;;;;;;;2.57;2.37;;;;;;;10.27;56.17;94203.56;5093015;28;20181;-48
2023/04/05 06:25:07;;;;;;;2.77;2.57;;;;;;;9.87;56.00;94122.28;5093727;28;20231;-48
2023/04/05 06:27:34;;;;;;;2.77;2.27;;;;;;;10.41;55.95;94199.72;5093156;28;20194;-49
2023/04/05 06:30:00;;;;;;;2.70;2.50;;;;;;;10.46;55.83;94202.63;5092486;28;20235;-47
2023/04/05 06:32:27;;;;;;;2.50;2.30;;;;;;;10.53;55.42;94207.00;5094109;28;20205;-49
2023/04/05 06:34:54;;;;;;;2.90;2.70;;;;;;;10.60;55.46;94207.19;5089019;28;20221;-50
2023/04/05 06:37:21;;;;;;;2.50;2.30;;;;;;;10.67;55.13;94205.66;5087897;28;20384;-47
2023/04/05 06:39:49;;;;;;;3.47;2.20;;;;;;;10.73;54.82;94207.59;5090183;28;20185;-47
2023/04/05 06:42:16;;;;;;;2.40;2.20;;;;;;;10.86;54.59;94209.75;5090155;28;20251;-49
2023/04/05 06:44:43;;;;;;;2.40;2.20;;;;;;;10.99;54.34;94220.38;5088879;28;20197;-50
2023/04/05 06:47:10;;;;;;;2.40;2.20;;;;;;;11.16;54.01;94212.78;5090066;28;20201;-56
2023/04/05 06:49:36;;;;;;;2.30;2.10;;;;;;;11.34;53.85;94221.16;5089909;28;20234;-56
2023/04/05 06:52:04;;;;;;;2.07;1.97;;;;;;;11.54;53.27;94230.22;5090171;28;20485;-48
2023/04/05 06:54:31;;;;;;;2.37;2.17;;;;;;;11.76;53.09;94221.16;5086795;28;20255;-46
2023/04/05 06:57:01;;;;;;;2.10;2.00;;;;;;;12.08;52.79;94229.88;5088830;28;20658;-48
2023/04/05 06:59:29;;;;;;;2.20;2.10;;;;;;;12.38;52.48;94227.69;5089450;28;20208;-46
2023/04/05 07:01:56;;;;;;;3.43;2.20;;;;;;;12.66;52.26;94239.22;5083435;28;20201;-49
2023/04/05 07:04:23;;;;;;;2.27;2.07;;;;;;;12.59;51.99;94204.91;5086709;28;20198;-48
2023/04/05 07:06:51;;;;;;;2.20;2.00;;;;;;;12.93;51.92;94250.91;5087470;28;20197;-50
2023/04/05 07:09:19;;;;;;;1.80;1.70;;;;;;;12.88;51.64;94242.88;5084771;28;20225;-51
2023/04/05 07:11:46;;;;;;;1.93;1.83;;;;;;;13.07;51.67;94249.41;5088218;28;20196;-48
2023/04/05 07:14:14;;;;;;;1.90;1.80;;;;;;;13.14;51.43;94252.16;5093389;28;20208;-48
2023/04/05 07:16:41;;;;;;;2.33;2.13;;;;;;;13.17;51.14;94250.06;5088045;28;20189;-52
2023/04/05 07:19:08;;;;;;;2.37;2.17;;;;;;;13.17;51.20;94259.50;5087491;28;20561;-51
2023/04/05 07:21:34;;;;;;;2.77;1.97;;;;;;;13.18;51.09;94249.09;5084336;28;20189;-46
2023/04/05 07:24:02;;;;;;;2.63;2.10;;;;;;;13.20;50.92;94259.97;5086676;28;20205;-48
2023/04/05 07:26:28;;;;;;;2.17;1.97;;;;;;;13.19;50.71;94265.28;5085207;28;20570;-48
2023/04/05 07:28:55;;;;;;;2.00;1.90;;;;;;;13.16;50.62;94263.84;5086291;28;20201;-50
2023/04/05 07:31:23;;;;;;;1.90;1.80;;;;;;;13.15;50.42;94266.56;5086677;28;20189;-49
2023/04/05 07:33:50;;;;;;;2.00;1.90;;;;;;;13.13;50.06;94263.38;5086519;28;20193;-47
2023/04/05 07:36:17;;;;;;;2.10;2.00;;;;;;;13.09;50.10;94256.97;5086498;28;20243;-47
2023/04/05 07:38:44;;;;;;;1.90;1.80;;;;;;;13.08;49.98;94263.84;5087173;28;20588;-47
2023/04/05 07:41:11;;;;;;;1.80;1.70;;;;;;;12.98;49.77;94258.09;5089732;28;20625;-47
2023/04/05 07:43:38;;;;;;;2.80;2.10;;;;;;;13.01;49.77;94265.47;5089894;28;20193;-48
2023/04/05 07:46:05;;;;;;;1.87;1.77;;;;;;;13.01;49.44;94283.44;5090212;28;20202;-50
2023/04/05 07:48:33;;;;;;;2.23;1.70;;;;;;;12.98;49.62;94279.44;5089950;28;20192;-46
2023/04/05 07:51:04;;;;;;;1.90;1.80;;;;;;;12.95;49.62;94279.78;5088951;28;20201;-47
2023/04/05 07:53:31;;;;;;;1.67;1.60;;;;;;;12.86;49.71;94282.50;5086472;28;20588;-47
2023/04/05 07:55:59;;;;;;;2.20;2.00;;;;;;;12.85;49.66;94288.59;5085804;28;20233;-46
2023/04/05 07:58:29;;;;;;;1.93;1.83;;;;;;;12.80;49.50;94289.88;5084894;28;20264;-47
2023/04/05 08:00:59;;;;;;;1.87;1.77;;;;;;;12.70;49.43;94283.31;5088868;28;20232;-46
2023/04/05 08:03:26;;;;;;;1.80;1.70;;;;;;;12.66;49.63;94305.91;5088199;28;20185;-46
2023/04/05 08:05:54;;;;;;;2.50;2.30;;;;;;;12.61;49.51;94302.22;5089034;28;20616;-47
2023/04/05 08:08:21;;;;;;;2.00;1.90;;;;;;;12.41;49.40;94279.44;5088966;28;20273;-50
2023/04/05 08:10:48;;;;;;;1.70;1.60;;;;;;;12.46;49.39;94299.47;5087861;28;20185;-46
2023/04/05 08:13:15;;;;;;;1.90;1.80;;;;;;;12.43;49.41;94303.16;5088212;28;20284;-48
2023/04/05 08:15:42;;;;;;;1.87;1.77;;;;;;;12.23;49.58;94276.22;5088735;28;20197;-46
2023/04/05 08:18:09;;;;;;;1.90;1.80;;;;;;;12.37;49.77;94305.56;5087689;28;20213;-47
2023/04/05 08:20:39;;;;;;;1.80;1.70;;;;;;;12.33;49.60;94305.06;5088551;28;20182;-48
2023/04/05 08:23:07;;;;;;;1.97;1.67;;;;;;;12.29;49.67;94314.84;5088237;28;20178;-46
2023/04/05 08:25:34;;;;;;;2.13;1.80;;;;;;;12.28;49.50;94308.13;5087774;28;20349;-46
2023/04/05 08:28:01;;;;;;;1.80;1.70;;;;;;;12.27;49.65;94306.53;5088467;28;20628;-50
2023/04/05 08:30:28;;;;;;;2.10;1.73;;;;;;;12.26;49.54;94317.75;5087974;28;20625;-47
2023/04/05 08:32:55;;;;;;;2.63;1.80;;;;;;;12.25;49.48;94312.75;5088257;28;20680;-48
2023/04/05 08:35:21;;;;;;;1.90;1.80;;;;;;;12.26;49.70;94320.31;5088163;28;20274;-47
2023/04/05 08:37:48;;;;;;;3.17;1.90;;;;;;;12.29;49.59;94322.53;5087921;28;20576;-47
2023/04/05 08:40:16;;;;;;;1.80;1.70;;;;;;;12.30;49.65;94320.75;5086868;28;20194;-47
2023/04/05 08:42:52;;;;;;;2.03;1.93;;;;;;;12.32;49.60;94323.19;5088349;28;20197;-48
2023/04/05 08:45:20;;;;;;;1.93;1.83;;;;;;;12.32;49.74;94324.00;5087377;28;20596;-51
2023/04/05 08:47:52;;;;;;;1.90;1.80;;;;;;;12.34;49.55;94321.25;5088371;28;20193;-45
2023/04/05 08:50:19;;;;;;;2.00;1.90;;;;;;;12.27;49.55;94306.53;5087982;28;20379;-47
2023/04/05 08:52:48;;;;;;;2.10;2.00;;;;;;;12.38;49.40;94325.91;5088193;28;20204;-47
2023/04/05 08:55:17;;;;;;;2.10;1.90;;;;;;;12.43;49.47;94326.25;5087284;28;20267;-47
2023/04/05 08:57:50;;;;;;;2.10;1.90;;;;;;;12.48;49.38;94329.16;5087439;28;20327;-46
2023/04/05 09:00:18;;;;;;;1.87;1.77;;;;;;;12.54;49.24;94327.72;5086124;28;20186;-51
2023/04/05 09:02:50;;;;;;;2.77;1.97;;;;;;;12.61;49.11;94327.88;5087870;28;20201;-48
2023/04/05 09:05:19;;;;;;;2.60;2.20;;;;;;;12.66;49.04;94336.72;5087849;28;20205;-46
2023/04/05 09:07:47;;;;;;;1.90;1.80;;;;;;;12.70;49.08;94339.75;5088860;28;20202;-48
2023/04/05 09:10:18;;;;;;;1.80;1.70;;;;;;;12.73;48.84;94350.47;5092089;28;20204;-47
2023/04/05 09:12:45;;;;;;;2.10;2.00;;;;;;;12.74;48.88;94346.19;5091718;28;20189;-46
2023/04/05 09:15:14;;;;;;;2.03;1.93;;;;;;;12.73;48.77;94345.34;5091827;28;20201;-47
2023/04/05 09:17:43;;;;;;;2.40;2.10;;;;;;;12.76;48.52;94347.59;5091597;28;20209;-48
2023/04/05 09:20:10;;;;;;;1.90;1.80;;;;;;;12.78;48.74;94343.13;5090740;28;20284;-47
2023/04/05 09:22:44;;;;;;;5.43;2.10;;;;;;;12.82;48.74;94338.47;5088653;28;20585;-49
2023/04/05 09:25:10;;;;;;;2.20;2.10;;;;;;;12.96;48.66;94350.66;5090624;28;20591;-48
2023/04/05 09:27:55;;;;;;;1.90;1.80;;;;;;;13.07;48.36;94341.84;5091167;28;20197;-48
2023/04/05 09:30:22;;;;;;;2.70;2.27;;;;;;;13.14;48.24;94344.56;5088512;28;20243;-50
2023/04/05 09:32:51;;;;;;;2.07;1.90;;;;;;;13.15;48.20;94330.75;5091634;28;20534;-48
2023/04/05 09:35:20;;;;;;;2.43;2.10;;;;;;;13.29;48.20;94342.97;5091999;28;20197;-46
2023/04/05 09:37:52;;;;;;;2.30;2.10;;;;;;;13.37;48.06;94331.88;5091247;28;20740;-46
2023/04/05 09:40:19;;;;;;;2.13;2.03;;;;;;;13.47;47.98;94332.50;5090241;28;20243;-48
2023/04/05 09:42:47;;;;;;;2.17;2.03;;;;;;;13.54;47.79;94334.25;5090723;28;20240;-45
2023/04/05 09:45:15;;;;;;;2.50;2.30;;;;;;;13.61;47.78;94333.59;5089999;28;20197;-47
2023/04/05 09:47:44;;;;;;;2.10;2.00;;;;;;;13.61;47.81;94326.69;5091120;28;20201;-48
2023/04/05 09:50:21;;;;;;;2.47;2.13;;;;;;;13.63;47.63;94329.88;5091180;28;20202;-47
2023/04/05 09:52:48;;;;;;;3.23;2.10;;;;;;;13.62;47.60;94315.44;5091140;28;20228;-47
2023/04/05 09:55:27;;;;;;;2.20;2.10;;;;;;;13.65;47.48;94327.97;5091044;28;20206;-46
2023/04/05 09:57:55;;;;;;;2.50;2.30;;;;;;;13.70;47.29;94320.56;5090763;28;20233;-48
2023/04/05 10:00:23;;;;;;;2.23;2.03;;;;;;;13.82;47.23;94333.88;5090732;28;20201;-47
2023/04/05 10:02:54;;;;;;;2.50;2.30;;;;;;;13.92;47.00;94341.38;5091270;28;20285;-48
2023/04/05 10:05:24;;;;;;;2.97;2.17;;;;;;;13.98;46.90;94340.69;5090818;28;20263;-47
2023/04/05 10:07:52;;;;;;;2.53;2.33;;;;;;;14.03;46.69;94330.69;5088255;28;20259;-45
2023/04/05 10:10:19;;;;;;;2.40;2.20;;;;;;;14.14;46.63;94325.19;5091227;28;20240;-48
2023/04/05 10:12:48;;;;;;;2.50;2.27;;;;;;;14.31;46.15;94329.28;5090125;28;20186;-49
2023/04/05 10:15:17;;;;;;;2.90;2.37;;;;;;;14.48;46.00;94334.34;5090363;28;20198;-47
2023/04/05 10:17:51;;;;;;;2.33;2.13;;;;;;;14.58;45.64;94327.22;5090462;28;20323;-48
2023/04/05 10:20:20;;;;;;;2.40;2.30;;;;;;;14.77;45.41;94331.13;5090158;28;20207;-47
2023/04/05 10:23:08;;;;;;;2.67;2.47;;;;;;;14.88;45.27;94324.75;5089994;28;20196;-46
2023/04/05 10:25:47;;;;;;;2.70;2.50;;;;;;;14.96;45.15;94332.44;5089122;28;20188;-47
2023/04/05 10:28:19;;;;;;;5.00;2.40;;;;;;;14.96;45.23;94332.44;5090032;28;20200;-47
2023/04/05 10:30:51;;;;;;;2.43;2.30;;;;;;;14.99;45.18;94332.88;5089526;28;20174;-50
2023/04/05 10:33:21;;;;;;;3.10;2.73;;;;;;;15.00;45.01;94331.91;5090622;28;20200;-47
2023/04/05 10:35:59;;;;;;;2.50;2.30;;;;;;;15.05;44.99;94332.19;5090043;28;20273;-47
2023/04/05 10:38:27;;;;;;;2.97;2.63;;;;;;;15.09;44.82;94324.91;5090463;28;20205;-47
2023/04/05 10:41:09;;;;;;;3.27;3.00;;;;;;;15.15;44.69;94333.72;5089260;28;20208;-49
2023/04/05 10:43:39;;;;;;;2.97;2.67;;;;;;;15.14;44.70;94329.53;5089943;28;20223;-49
2023/04/05 10:46:08;;;;;;;2.43;2.33;;;;;;;15.06;44.59;94328.63;5089671;28;20205;-51
2023/04/05 10:48:41;;;;;;;3.00;2.80;;;;;;;15.07;44.50;94334.59;5087862;28;20283;-47
2023/04/05 10:51:07;;;;;;;2.87;2.67;;;;;;;15.05;44.43;94327.03;5090182;28;20209;-48
2023/04/05 10:53:36;;;;;;;2.93;2.70;;;;;;;15.08;44.47;94335.41;5089271;28;20610;-47
2023/04/05 10:56:03;;;;;;;3.83;2.73;;;;;;;15.04;44.39;94338.31;5089737;28;20304;-48
2023/04/05 10:58:32;;;;;;;2.93;2.70;;;;;;;15.02;44.37;94345.41;5090244;28;20218;-48
2023/04/05 11:00:59;;;;;;;3.17;2.87;;;;;;;14.99;44.49;94340.63;5088842;28;20683;-47
2023/04/05 11:03:46;;;;;;;2.87;2.67;;;;;;;14.99;44.26;94338.03;5090406;28;20628;-46
2023/04/05 11:06:31;;;;;;;3.00;2.50;;;;;;;14.88;44.09;94328.13;5089668;28;20189;-47
2023/04/05 11:09:00;;;;;;;3.97;3.20;;;;;;;14.89;44.16;94340.03;5086962;28;20190;-48
2023/04/05 11:11:27;;;;;;;3.10;2.90;;;;;;;14.83;44.10;94350.22;5089778;28;20212;-51
2023/04/05 11:13:55;;;;;;;3.50;3.10;;;;;;;14.65;44.20;94327.34;5089150;28;20605;-46
2023/04/05 11:16:23;;;;;;;3.40;3.00;;;;;;;14.70;44.15;94349.03;5088680;28;20641;-47
2023/04/05 11:18:52;;;;;;;4.23;3.00;;;;;;;14.62;44.37;94343.13;5089274;28;20298;-49
2023/04/05 11:21:24;;;;;;;3.23;3.03;;;;;;;14.60;44.36;94339.94;5089782;28;20193;-47
2023/04/05 11:24:05;;;;;;;3.00;2.80;;;;;;;14.62;44.24;94356.00;5089614;28;20196;-47
2023/04/05 11:26:55;;;;;;;3.53;3.23;;;;;;;14.64;44.29;94341.19;5089533;28;20193;-48
2023/04/05 11:29:48;;;;;;;3.43;3.13;;;;;;;14.67;44.15;94339.06;5089525;28;20209;-49
2023/04/05 11:32:15;;;;;;;2.90;2.70;;;;;;;14.71;44.23;94342.91;5088825;28;20201;-48
2023/04/05 11:35:01;;;;;;;3.37;2.93;;;;;;;14.74;44.00;94337.41;5088991;28;20209;-46
2023/04/05 11:37:54;;;;;;;3.50;3.20;;;;;;;14.80;44.03;94344.44;5088431;28;20201;-48
2023/04/05 11:40:26;;;;;;;3.40;3.10;;;;;;;14.89;43.76;94346.97;5089255;28;20271;-46
2023/04/05 11:42:59;;;;;;;3.80;3.50;;;;;;;15.00;43.79;94342.22;5088937;28;20247;-50
2023/04/05 11:45:26;;;;;;;4.87;3.17;;;;;;;15.11;43.50;94337.59;5086750;28;20194;-47
2023/04/05 11:47:53;;;;;;;3.60;3.30;;;;;;;15.19;43.38;94340.91;5088122;28;20182;-49